createdAt,value
2018-09-09T00:01:26.159Z,24.60
2018-09-09T00:03:54.296Z,24.60
2018-09-09T00:06:22.406Z,24.60
2018-09-09T00:08:50.596Z,24.60
2018-09-09T00:11:18.680Z,24.60
2018-09-09T00:13:46.760Z,24.70
2018-09-09T00:16:14.840Z,24.70
2018-09-09T00:18:42.908Z,24.70
2018-09-09T00:21:11.004Z,24.70
2018-09-09T00:23:39.158Z,24.70
2018-09-09T00:26:07.249Z,24.70
2018-09-09T00:28:35.320Z,24.70
2018-09-09T00:31:03.385Z,24.70
2018-09-09T00:33:31.525Z,24.80
2018-09-09T00:35:59.721Z,24.80
2018-09-09T00:38:27.841Z,24.80
2018-09-09T00:40:55.937Z,24.80
2018-09-09T00:43:24.009Z,24.80
2018-09-09T00:45:52.549Z,24.80
2018-09-09T00:48:20.631Z,24.80
2018-09-09T00:50:54.269Z,24.80
2018-09-09T00:53:27.808Z,24.90
2018-09-09T00:55:55.901Z,24.90
2018-09-09T00:58:24.000Z,24.90
2018-09-09T01:00:57.704Z,24.90
2018-09-09T01:03:25.785Z,24.90
2018-09-09T01:05:53.888Z,24.90
2018-09-09T01:08:21.973Z,25.00
2018-09-09T01:10:50.053Z,25.00
2018-09-09T01:13:18.225Z,25.00
2018-09-09T01:15:46.301Z,24.90
2018-09-09T01:18:14.411Z,25.00
2018-09-09T01:20:42.492Z,25.00
2018-09-09T01:23:10.579Z,25.00
2018-09-09T01:25:38.764Z,25.00
2018-09-09T01:28:06.848Z,25.10
2018-09-09T01:30:34.980Z,25.10
2018-09-09T01:33:03.040Z,25.10
2018-09-09T01:35:31.119Z,25.10
2018-09-09T01:37:59.229Z,25.10
2018-09-09T01:40:27.321Z,25.10
2018-09-09T01:42:55.409Z,25.10
2018-09-09T01:45:23.481Z,25.10
2018-09-09T01:47:51.562Z,25.10
2018-09-09T01:50:19.640Z,25.10
2018-09-09T01:52:47.725Z,25.10
2018-09-09T01:55:15.798Z,25.10
2018-09-09T01:57:43.929Z,25.10
2018-09-09T02:00:12.018Z,25.10
2018-09-09T02:02:40.235Z,25.10
2018-09-09T02:05:08.356Z,25.10
2018-09-09T02:07:36.917Z,25.10
2018-09-09T02:10:05.008Z,25.20
2018-09-09T02:12:33.085Z,25.20
2018-09-09T02:15:01.268Z,25.20
2018-09-09T02:17:29.322Z,25.20
2018-09-09T02:19:57.391Z,25.20
2018-09-09T02:22:25.461Z,25.30
2018-09-09T02:24:53.736Z,25.30
2018-09-09T02:27:21.812Z,25.20
2018-09-09T02:29:49.896Z,25.30
2018-09-09T02:32:17.981Z,25.30
2018-09-09T02:34:46.049Z,25.30
2018-09-09T02:37:14.135Z,25.30
2018-09-09T02:39:42.373Z,25.30
2018-09-09T02:42:10.500Z,25.30
2018-09-09T02:44:38.618Z,25.30
2018-09-09T02:47:06.754Z,25.30
2018-09-09T02:49:34.861Z,25.30
2018-09-09T02:52:02.928Z,25.30
2018-09-09T02:54:31.090Z,25.30
2018-09-09T02:56:59.152Z,25.30
2018-09-09T02:59:27.300Z,25.40
2018-09-09T03:01:55.370Z,25.40
2018-09-09T03:04:23.439Z,25.40
2018-09-09T03:06:51.508Z,25.40
2018-09-09T03:09:19.639Z,25.40
2018-09-09T03:11:47.721Z,25.40
2018-09-09T03:14:15.812Z,25.40
2018-09-09T03:16:43.929Z,25.40
2018-09-09T03:19:12.016Z,25.40
2018-09-09T03:21:40.116Z,25.40
2018-09-09T03:24:08.254Z,25.40
2018-09-09T03:26:36.343Z,25.40
2018-09-09T03:29:04.448Z,25.40
2018-09-09T03:31:32.516Z,25.40
2018-09-09T03:34:00.600Z,25.40
2018-09-09T03:36:28.670Z,25.40
2018-09-09T03:38:56.750Z,25.40
2018-09-09T03:41:24.944Z,25.40
2018-09-09T03:43:53.034Z,25.40
2018-09-09T03:46:21.105Z,25.40
2018-09-09T03:48:49.276Z,25.40
2018-09-09T03:51:17.520Z,25.40
2018-09-09T03:53:45.640Z,25.40
2018-09-09T03:56:13.753Z,25.40
2018-09-09T03:58:41.892Z,25.40
2018-09-09T04:01:09.996Z,25.40
2018-09-09T04:03:38.200Z,25.40
2018-09-09T04:06:06.297Z,25.40
2018-09-09T04:08:34.425Z,25.40
2018-09-09T04:11:06.766Z,25.40
2018-09-09T04:13:34.824Z,25.40
2018-09-09T04:16:02.888Z,25.40
2018-09-09T04:18:31.048Z,25.40
2018-09-09T04:20:59.122Z,25.40
2018-09-09T04:23:27.288Z,25.40
2018-09-09T04:25:55.345Z,25.40
2018-09-09T04:28:23.767Z,25.40
2018-09-09T04:30:51.999Z,25.40
2018-09-09T04:33:20.385Z,25.40
2018-09-09T04:35:48.472Z,25.40
2018-09-09T04:38:16.556Z,25.40
2018-09-09T04:40:44.679Z,25.40
2018-09-09T04:43:12.792Z,25.40
2018-09-09T04:45:40.922Z,25.40
2018-09-09T04:48:09.070Z,25.40
2018-09-09T04:50:37.207Z,25.50
2018-09-09T04:53:05.261Z,25.40
2018-09-09T04:55:33.352Z,25.40
2018-09-09T04:58:01.462Z,25.40
2018-09-09T05:00:29.589Z,25.40
2018-09-09T05:02:57.652Z,25.40
2018-09-09T05:05:25.851Z,25.40
2018-09-09T05:07:53.998Z,25.50
2018-09-09T05:10:22.061Z,25.50
2018-09-09T05:12:50.360Z,25.50
2018-09-09T05:15:18.446Z,25.50
2018-09-09T05:17:46.524Z,25.50
2018-09-09T05:20:14.612Z,25.40
2018-09-09T05:22:43.120Z,25.50
2018-09-09T05:25:11.267Z,25.50
2018-09-09T05:27:39.357Z,25.40
2018-09-09T05:30:07.903Z,25.40
2018-09-09T05:32:36.146Z,25.40
2018-09-09T05:35:04.234Z,25.40
2018-09-09T05:37:32.293Z,25.40
2018-09-09T05:40:00.380Z,25.40
2018-09-09T05:42:28.546Z,25.50
2018-09-09T05:44:56.582Z,25.40
2018-09-09T05:47:24.670Z,25.40
2018-09-09T05:49:52.877Z,25.40
2018-09-09T05:52:20.960Z,25.40
2018-09-09T05:54:49.017Z,25.40
2018-09-09T05:57:17.123Z,25.40
2018-09-09T05:59:45.197Z,25.40
2018-09-09T06:02:13.278Z,25.40
2018-09-09T06:04:41.410Z,25.40
2018-09-09T06:07:09.538Z,25.40
2018-09-09T06:09:37.628Z,25.40
2018-09-09T06:12:05.693Z,25.40
2018-09-09T06:14:33.773Z,25.40
2018-09-09T06:17:01.933Z,25.40
2018-09-09T06:19:30.009Z,25.40
2018-09-09T06:21:58.136Z,25.40
2018-09-09T06:24:26.245Z,25.40
2018-09-09T06:26:54.320Z,25.40
2018-09-09T06:29:22.388Z,25.40
2018-09-09T06:31:50.462Z,25.40
2018-09-09T06:34:18.629Z,25.40
2018-09-09T06:36:46.688Z,25.40
2018-09-09T06:39:14.799Z,25.40
2018-09-09T06:41:42.892Z,25.40
2018-09-09T06:44:11.071Z,25.40
2018-09-09T06:46:39.184Z,25.40
2018-09-09T06:49:07.592Z,25.40
2018-09-09T06:51:35.673Z,25.40
2018-09-09T06:54:03.817Z,25.40
2018-09-09T06:56:32.472Z,25.30
2018-09-09T06:59:00.599Z,25.40
2018-09-09T07:01:28.896Z,25.40
2018-09-09T07:03:57.006Z,25.40
2018-09-09T07:06:25.113Z,25.30
2018-09-09T07:08:53.236Z,25.40
2018-09-09T07:11:21.440Z,25.40
2018-09-09T07:13:49.461Z,25.30
2018-09-09T07:16:17.589Z,25.30
2018-09-09T07:18:45.821Z,25.30
2018-09-09T07:21:13.981Z,25.30
2018-09-09T07:23:42.203Z,25.30
2018-09-09T07:26:10.568Z,25.30
2018-09-09T07:28:39.027Z,25.30
2018-09-09T07:31:07.329Z,25.30
2018-09-09T07:33:35.518Z,25.30
2018-09-09T07:36:03.696Z,25.20
2018-09-09T07:38:31.813Z,25.20
2018-09-09T07:40:59.917Z,25.30
2018-09-09T07:43:27.996Z,25.30
2018-09-09T07:45:56.081Z,25.30
2018-09-09T07:48:24.164Z,25.30
2018-09-09T07:50:52.299Z,25.30
2018-09-09T07:53:20.321Z,25.40
2018-09-09T07:55:48.413Z,25.40
2018-09-09T07:58:16.502Z,25.30
2018-09-09T08:00:44.636Z,25.30
2018-09-09T08:03:12.943Z,25.40
2018-09-09T08:05:41.134Z,25.40
2018-09-09T08:08:09.257Z,25.40
2018-09-09T08:10:37.349Z,25.30
2018-09-09T08:13:05.790Z,25.40
2018-09-09T08:15:33.861Z,25.30
2018-09-09T08:18:01.938Z,25.30
2018-09-09T08:20:30.013Z,25.30
2018-09-09T08:22:58.132Z,25.30
2018-09-09T08:25:26.204Z,25.40
2018-09-09T08:27:54.284Z,25.40
2018-09-09T08:30:22.369Z,25.40
2018-09-09T08:32:50.452Z,25.30
2018-09-09T08:35:18.549Z,25.20
2018-09-09T08:37:46.642Z,25.20
2018-09-09T08:40:14.772Z,25.10
2018-09-09T08:42:42.912Z,25.20
2018-09-09T08:45:11.138Z,25.20
2018-09-09T08:47:39.293Z,25.10
2018-09-09T08:50:07.379Z,25.20
2018-09-09T08:52:35.472Z,25.20
2018-09-09T08:55:03.553Z,25.20
2018-09-09T08:57:31.719Z,25.30
2018-09-09T08:59:59.815Z,25.20
2018-09-09T09:02:27.966Z,25.20
2018-09-09T09:04:56.127Z,25.20
2018-09-09T09:07:24.444Z,25.10
2018-09-09T09:09:52.492Z,25.20
2018-09-09T09:12:20.616Z,25.20
2018-09-09T09:14:48.809Z,25.30
2018-09-09T09:17:16.801Z,25.30
2018-09-09T09:19:44.898Z,25.40
2018-09-09T09:22:12.991Z,25.20
2018-09-09T09:24:41.065Z,25.30
2018-09-09T09:27:09.132Z,25.40
2018-09-09T09:29:42.769Z,25.40
2018-09-09T09:32:10.880Z,25.40
2018-09-09T09:34:39.041Z,25.40
2018-09-09T09:37:07.121Z,25.50
2018-09-09T09:39:35.208Z,25.50
2018-09-09T09:42:03.309Z,25.50
2018-09-09T09:44:31.433Z,25.60
2018-09-09T09:46:59.533Z,25.50
2018-09-09T09:49:27.766Z,25.60
2018-09-09T09:51:55.862Z,25.60
2018-09-09T09:54:24.032Z,25.70
2018-09-09T09:56:52.122Z,25.80
2018-09-09T09:59:20.213Z,25.80
2018-09-09T10:01:48.305Z,25.80
2018-09-09T10:04:16.556Z,25.90
2018-09-09T10:06:44.617Z,25.90
2018-09-09T10:09:12.795Z,26.00
2018-09-09T10:11:41.840Z,25.90
2018-09-09T10:14:09.916Z,26.00
2018-09-09T10:16:38.033Z,26.10
2018-09-09T10:19:06.128Z,26.10
2018-09-09T10:21:34.267Z,26.10
2018-09-09T10:24:02.371Z,26.00
2018-09-09T10:26:30.833Z,26.10
2018-09-09T10:28:59.036Z,26.10
2018-09-09T10:31:27.145Z,26.10
2018-09-09T10:33:55.253Z,26.10
2018-09-09T10:36:23.324Z,26.20
2018-09-09T10:38:51.523Z,26.10
2018-09-09T10:41:19.658Z,26.20
2018-09-09T10:43:47.838Z,26.50
2018-09-09T10:46:15.987Z,26.40
2018-09-09T10:48:43.992Z,26.40
2018-09-09T10:51:12.157Z,26.50
2018-09-09T10:53:40.252Z,26.40
2018-09-09T10:56:08.380Z,26.40
2018-09-09T10:58:36.464Z,26.40
2018-09-09T11:01:04.544Z,26.40
2018-09-09T11:03:32.781Z,26.50
2018-09-09T11:06:01.015Z,26.50
2018-09-09T11:08:29.108Z,26.50
2018-09-09T11:10:57.400Z,26.50
2018-09-09T11:13:25.576Z,26.50
2018-09-09T11:15:53.728Z,26.50
2018-09-09T11:18:21.876Z,26.50
2018-09-09T11:20:49.949Z,26.50
2018-09-09T11:23:18.120Z,26.60
2018-09-09T11:25:46.173Z,26.60
2018-09-09T11:28:14.248Z,26.70
2018-09-09T11:30:42.412Z,26.70
2018-09-09T11:33:10.665Z,26.70
2018-09-09T11:35:38.715Z,26.70
2018-09-09T11:38:06.841Z,26.80
2018-09-09T11:40:34.987Z,26.80
2018-09-09T11:43:03.038Z,26.80
2018-09-09T11:45:31.187Z,26.70
2018-09-09T11:47:59.374Z,26.70
2018-09-09T11:50:27.604Z,26.60
2018-09-09T11:52:55.685Z,26.70
2018-09-09T11:55:23.764Z,26.70
2018-09-09T11:57:51.816Z,26.70
2018-09-09T12:00:19.900Z,26.60
2018-09-09T12:02:48.012Z,26.60
2018-09-09T12:05:16.104Z,26.60
2018-09-09T12:07:44.251Z,26.60
2018-09-09T12:10:12.320Z,26.60
2018-09-09T12:12:40.453Z,26.70
2018-09-09T12:15:08.533Z,26.70
2018-09-09T12:17:36.692Z,26.70
2018-09-09T12:20:04.904Z,26.80
2018-09-09T12:22:33.001Z,26.80
2018-09-09T12:25:01.254Z,26.80
2018-09-09T12:27:29.514Z,26.90
2018-09-09T12:29:57.750Z,26.90
2018-09-09T12:32:25.887Z,26.90
2018-09-09T12:34:54.195Z,26.90
2018-09-09T12:37:22.349Z,26.90
2018-09-09T12:39:50.467Z,26.90
2018-09-09T12:42:18.630Z,27.00
2018-09-09T12:44:52.276Z,27.00
2018-09-09T12:47:25.866Z,27.00
2018-09-09T12:49:54.112Z,27.00
2018-09-09T12:52:22.376Z,27.00
2018-09-09T12:54:50.469Z,27.00
2018-09-09T12:57:18.661Z,27.10
2018-09-09T12:59:46.934Z,27.10
2018-09-09T13:02:15.116Z,27.10
2018-09-09T13:04:43.440Z,27.10
2018-09-09T13:07:11.680Z,27.10
2018-09-09T13:09:39.802Z,27.20
2018-09-09T13:12:07.841Z,27.20
2018-09-09T13:14:35.997Z,27.20
2018-09-09T13:17:04.122Z,27.20
2018-09-09T13:19:32.353Z,27.20
2018-09-09T13:22:00.985Z,27.20
2018-09-09T13:24:29.165Z,27.20
2018-09-09T13:26:57.338Z,27.20
2018-09-09T13:29:25.559Z,27.20
2018-09-09T13:31:53.758Z,27.30
2018-09-09T13:34:21.963Z,27.30
2018-09-09T13:36:50.024Z,27.30
2018-09-09T13:39:18.117Z,27.40
2018-09-09T13:41:46.197Z,27.30
2018-09-09T13:44:14.392Z,27.40
2018-09-09T13:46:42.449Z,27.30
2018-09-09T13:49:10.549Z,27.30
2018-09-09T13:51:38.676Z,27.30
2018-09-09T13:54:06.821Z,27.30
2018-09-09T13:56:34.894Z,27.30
2018-09-09T13:59:03.328Z,27.30
2018-09-09T14:01:31.440Z,27.30
2018-09-09T14:03:59.693Z,27.20
2018-09-09T14:06:27.857Z,27.30
2018-09-09T14:08:56.201Z,27.20
2018-09-09T14:11:24.316Z,27.20
2018-09-09T14:13:52.469Z,27.20
2018-09-09T14:16:20.580Z,27.20
2018-09-09T14:18:48.732Z,27.20
2018-09-09T14:21:16.791Z,27.20
2018-09-09T14:23:44.856Z,27.20
2018-09-09T14:26:13.945Z,27.20
2018-09-09T14:28:42.053Z,27.10
2018-09-09T14:31:10.160Z,27.10
2018-09-09T14:33:38.337Z,27.10
2018-09-09T14:36:06.198Z,27.10
2018-09-09T14:38:34.305Z,27.10
2018-09-09T14:41:02.461Z,27.10
2018-09-09T14:43:30.614Z,27.10
2018-09-09T14:45:59.123Z,27.10
2018-09-09T14:48:27.288Z,27.10
2018-09-09T14:50:55.404Z,27.10
2018-09-09T14:53:23.536Z,27.10
2018-09-09T14:55:51.564Z,27.10
2018-09-09T14:58:19.690Z,27.10
2018-09-09T15:00:47.840Z,27.10
2018-09-09T15:03:15.969Z,27.10
2018-09-09T15:05:44.045Z,27.10
2018-09-09T15:08:12.206Z,27.00
2018-09-09T15:10:40.309Z,27.10
2018-09-09T15:13:08.396Z,27.00
2018-09-09T15:15:36.557Z,27.10
2018-09-09T15:18:04.688Z,27.00
2018-09-09T15:20:32.862Z,27.10
2018-09-09T15:23:00.982Z,27.00
2018-09-09T15:25:29.108Z,27.00
2018-09-09T15:27:57.235Z,27.00
2018-09-09T15:30:25.305Z,26.90
2018-09-09T15:32:53.360Z,26.90
2018-09-09T15:35:21.448Z,27.00
2018-09-09T15:37:49.536Z,27.00
2018-09-09T15:40:17.605Z,26.90
2018-09-09T15:42:45.736Z,26.90
2018-09-09T15:45:13.844Z,26.90
2018-09-09T15:47:42.029Z,26.90
2018-09-09T15:50:10.150Z,26.90
2018-09-09T15:52:38.313Z,27.00
2018-09-09T15:55:06.527Z,26.90
2018-09-09T15:57:34.632Z,27.00
2018-09-09T16:00:02.950Z,27.00
2018-09-09T16:02:31.065Z,26.90
2018-09-09T16:04:59.278Z,26.90
2018-09-09T16:07:27.564Z,26.80
2018-09-09T16:09:55.729Z,26.80
2018-09-09T16:12:23.776Z,26.80
2018-09-09T16:14:51.834Z,26.90
2018-09-09T16:17:19.897Z,26.90
2018-09-09T16:19:48.004Z,26.80
2018-09-09T16:22:16.075Z,26.80
2018-09-09T16:24:44.240Z,26.70
2018-09-09T16:27:12.362Z,26.80
2018-09-09T16:29:40.439Z,26.70
2018-09-09T16:32:08.829Z,26.70
2018-09-09T16:34:36.997Z,26.70
2018-09-09T16:37:05.100Z,26.70
2018-09-09T16:39:33.470Z,26.70
2018-09-09T16:42:01.567Z,26.70
2018-09-09T16:44:29.757Z,26.70
2018-09-09T16:46:57.931Z,26.70
2018-09-09T16:49:26.034Z,26.70
2018-09-09T16:51:54.111Z,26.70
2018-09-09T16:54:22.164Z,26.60
2018-09-09T16:56:50.441Z,26.70
2018-09-09T16:59:18.500Z,26.70
2018-09-09T17:01:46.648Z,26.70
2018-09-09T17:04:14.842Z,26.70
2018-09-09T17:06:42.924Z,26.70
2018-09-09T17:09:11.716Z,26.70
2018-09-09T17:11:40.337Z,26.70
2018-09-09T17:14:08.630Z,26.70
2018-09-09T17:16:36.705Z,26.60
2018-09-09T17:19:04.833Z,26.60
2018-09-09T17:21:32.940Z,26.60
2018-09-09T17:24:01.120Z,26.60
2018-09-09T17:26:29.405Z,26.60
2018-09-09T17:28:57.512Z,26.50
2018-09-09T17:31:25.780Z,26.60
2018-09-09T17:33:53.992Z,26.50
2018-09-09T17:36:22.112Z,26.50
2018-09-09T17:38:50.218Z,26.50
2018-09-09T17:41:18.284Z,26.50
2018-09-09T17:43:46.360Z,26.50
2018-09-09T17:46:14.415Z,26.50
2018-09-09T17:48:42.517Z,26.50
2018-09-09T17:51:10.621Z,26.50
2018-09-09T17:53:38.860Z,26.50
2018-09-09T17:56:06.925Z,26.40
2018-09-09T17:58:35.091Z,26.40
2018-09-09T18:01:03.198Z,26.40
2018-09-09T18:03:31.324Z,26.40
2018-09-09T18:05:59.487Z,26.40
2018-09-09T18:08:27.633Z,26.40
2018-09-09T18:10:55.819Z,26.30
2018-09-09T18:13:24.000Z,26.40
2018-09-09T18:15:52.076Z,26.40
2018-09-09T18:18:20.176Z,26.30
2018-09-09T18:20:48.346Z,26.30
2018-09-09T18:23:16.396Z,26.30
2018-09-09T18:25:44.798Z,26.30
2018-09-09T18:28:13.305Z,26.30
2018-09-09T18:30:41.484Z,26.30
2018-09-09T18:33:09.781Z,26.30
2018-09-09T18:35:37.884Z,26.20
2018-09-09T18:38:06.068Z,26.30
2018-09-09T18:40:34.300Z,26.20
2018-09-09T18:43:02.508Z,26.20
2018-09-09T18:45:30.743Z,26.20
2018-09-09T18:47:59.069Z,26.20
2018-09-09T18:50:27.209Z,26.20
2018-09-09T18:52:55.787Z,26.20
2018-09-09T18:55:23.987Z,26.20
2018-09-09T18:57:52.450Z,26.20
2018-09-09T19:00:20.686Z,26.20
2018-09-09T19:02:48.848Z,26.20
2018-09-09T19:05:17.020Z,26.10
2018-09-09T19:07:45.143Z,26.10
2018-09-09T19:10:13.630Z,26.10
2018-09-09T19:12:41.818Z,26.10
2018-09-09T19:15:10.009Z,26.10
2018-09-09T19:17:38.320Z,26.10
2018-09-09T19:20:06.404Z,26.00
2018-09-09T19:22:34.548Z,26.00
2018-09-09T19:25:02.639Z,26.00
2018-09-09T19:27:30.793Z,26.00
2018-09-09T19:29:58.967Z,26.00
2018-09-09T19:32:27.100Z,26.00
2018-09-09T19:34:55.532Z,25.90
2018-09-09T19:37:23.660Z,26.00
2018-09-09T19:39:52.002Z,26.00
2018-09-09T19:42:20.096Z,26.00
2018-09-09T19:44:48.216Z,25.90
2018-09-09T19:47:16.322Z,25.90
2018-09-09T19:49:44.457Z,25.90
2018-09-09T19:52:12.565Z,25.90
2018-09-09T19:54:40.776Z,25.90
2018-09-09T19:57:08.902Z,25.90
2018-09-09T19:59:37.033Z,25.90
2018-09-09T20:02:05.146Z,25.90
2018-09-09T20:04:33.346Z,25.90
2018-09-09T20:07:01.434Z,25.80
2018-09-09T20:09:29.644Z,25.80
2018-09-09T20:11:58.599Z,25.80
2018-09-09T20:14:26.781Z,25.80
2018-09-09T20:16:54.884Z,25.80
2018-09-09T20:19:23.016Z,25.80
2018-09-09T20:21:51.133Z,25.80
2018-09-09T20:24:19.269Z,25.80
2018-09-09T20:26:47.380Z,25.80
2018-09-09T20:29:15.513Z,25.80
2018-09-09T20:31:43.588Z,25.80
2018-09-09T20:34:11.705Z,25.80
2018-09-09T20:36:39.921Z,25.80
2018-09-09T20:39:09.469Z,25.80
2018-09-09T20:41:37.610Z,25.70
2018-09-09T20:44:06.237Z,25.70
2018-09-09T20:46:34.348Z,25.70
2018-09-09T20:49:02.469Z,25.80
2018-09-09T20:51:30.543Z,25.70
2018-09-09T20:53:58.681Z,25.70
2018-09-09T20:56:26.803Z,25.70
2018-09-09T20:58:55.608Z,25.70
2018-09-09T21:01:24.119Z,25.70
2018-09-09T21:03:52.165Z,25.70
2018-09-09T21:06:20.235Z,25.70
2018-09-09T21:08:48.284Z,25.70
2018-09-09T21:11:16.371Z,25.70
2018-09-09T21:13:44.460Z,25.70
2018-09-09T21:16:12.537Z,25.60
2018-09-09T21:18:40.688Z,25.70
2018-09-09T21:21:08.765Z,25.70
2018-09-09T21:23:36.869Z,25.60
2018-09-09T21:26:04.947Z,25.60
2018-09-09T21:28:33.096Z,25.60
2018-09-09T21:31:01.181Z,25.60
2018-09-09T21:33:29.403Z,25.60
2018-09-09T21:35:57.573Z,25.60
2018-09-09T21:38:25.656Z,25.60
2018-09-09T21:40:53.748Z,25.60
2018-09-09T21:43:21.877Z,25.60
2018-09-09T21:45:50.220Z,25.60
2018-09-09T21:48:18.273Z,25.60
2018-09-09T21:50:46.516Z,25.60
2018-09-09T21:53:14.576Z,25.60
2018-09-09T21:55:42.733Z,25.60
2018-09-09T21:58:10.821Z,25.50
2018-09-09T22:00:44.369Z,25.60
2018-09-09T22:03:12.440Z,25.60
2018-09-09T22:05:40.501Z,25.50
2018-09-09T22:08:08.632Z,25.50
2018-09-09T22:10:36.717Z,25.50
2018-09-09T22:13:04.914Z,25.50
2018-09-09T22:15:32.973Z,25.50
2018-09-09T22:18:01.036Z,25.50
2018-09-09T22:20:29.280Z,25.50
2018-09-09T22:22:57.365Z,25.50
2018-09-09T22:25:25.549Z,25.50
2018-09-09T22:27:53.669Z,25.50
2018-09-09T22:30:21.729Z,25.50
2018-09-09T22:32:49.858Z,25.50
2018-09-09T22:35:17.921Z,25.50
2018-09-09T22:37:46.031Z,25.50
2018-09-09T22:40:14.148Z,25.50
2018-09-09T22:42:42.200Z,25.50
2018-09-09T22:45:10.261Z,25.40
2018-09-09T22:47:38.334Z,25.40
2018-09-09T22:50:06.408Z,25.40
2018-09-09T22:52:34.537Z,25.40
2018-09-09T22:55:02.624Z,25.40
2018-09-09T22:57:30.765Z,25.40
2018-09-09T22:59:58.845Z,25.40
2018-09-09T23:02:26.939Z,25.40
2018-09-09T23:04:55.032Z,25.40
2018-09-09T23:07:23.124Z,25.40
2018-09-09T23:09:51.303Z,25.40
2018-09-09T23:12:19.364Z,25.40
2018-09-09T23:14:47.466Z,25.40
2018-09-09T23:17:15.569Z,25.40
2018-09-09T23:19:43.648Z,25.40
2018-09-09T23:22:11.755Z,25.40
2018-09-09T23:24:39.827Z,25.40
2018-09-09T23:27:07.900Z,25.40
2018-09-09T23:29:35.960Z,25.40
2018-09-09T23:32:04.070Z,25.40
2018-09-09T23:34:32.132Z,25.40
2018-09-09T23:37:00.285Z,25.40
2018-09-09T23:39:28.395Z,25.40
2018-09-09T23:41:56.568Z,25.40
2018-09-09T23:44:24.673Z,25.40
2018-09-09T23:46:52.952Z,25.40
2018-09-09T23:49:21.085Z,25.30
2018-09-09T23:51:49.268Z,25.30
2018-09-09T23:54:17.344Z,25.30
2018-09-09T23:56:45.416Z,25.30
2018-09-09T23:59:13.484Z,25.30
